CheckWX is a tool to help pilots better visualize weather data.  It is not intended as a substitute for an official pre-flight weather briefing.

08:44:33 UTC

KSYR METAR
Syracuse Hancock International Airport
Syracuse, New York, USA
Current

44 mins ago

KSYR 270801Z 04004KT 4SM RA BR FEW009 BKN017 OVC027 04/03 A2939 RMK AO2 P0002 T00390028
Observed
Feb-27 @ 08:01 UTC
Wind
  • 040° at 4 KTS
Visibility
4 SM
Flight Rules
MVFR
Conditions
Rain, Mist
Cloud Levels
  • Few at 900' AGL
  • Broken at 1,700' AGL
  • Overcast at 2,700' AGL
Temperature
C / 39°F
Dewpoint
C / 37°F
Humidity
93%
Altimeter
29.39" Hg
Pressure
995.22 hPa
Current Rain
0.02"
Previous

51 mins ago

KSYR 270754Z 01003KT 2 1/2SM RA BR SCT009 BKN021 OVC027 04/03 A2940 RMK AO2 SLP953 P0015 T00440028
Observed
Feb-27 @ 07:54 UTC
Wind
  • 010° at 3 KTS
Visibility
2 1/2 SM
Flight Rules
IFR
Conditions
Rain, Mist
Cloud Levels
  • Scattered at 900' AGL
  • Broken at 2,100' AGL
  • Overcast at 2,700' AGL
Temperature
C / 39°F
Dewpoint
C / 37°F
Humidity
93%
Altimeter
29.4" Hg
Pressure
995.62 hPa
Current Rain
0.15"
Previous

1 hour ago

KSYR 270741Z 25003KT 2 1/2SM R28/3500VP6000FT RA BR SCT009 OVC021 04/03 A2940 RMK AO2 P0010 T00440033
Observed
Feb-27 @ 07:41 UTC
Wind
  • 250° at 3 KTS
Visibility
2 1/2 SM
Flight Rules
IFR
Conditions
Rain, Mist
Cloud Levels
  • Scattered at 900' AGL
  • Overcast at 2,100' AGL
Temperature
C / 39°F
Dewpoint
C / 37°F
Humidity
93%
Altimeter
29.4" Hg
Pressure
995.62 hPa
Current Rain
0.1"